createdAt,value
2018-05-09T00:00:19.714Z,67.33
2018-05-09T00:02:49.938Z,68.50
2018-05-09T00:05:19.865Z,68.36
2018-05-09T00:07:48.903Z,68.81
2018-05-09T00:10:17.207Z,68.81
2018-05-09T00:12:46.778Z,69.47
2018-05-09T00:15:15.477Z,68.81
2018-05-09T00:17:44.506Z,69.44
2018-05-09T00:20:14.726Z,68.93
2018-05-09T00:22:43.688Z,69.00
2018-05-09T00:25:14.630Z,68.98
2018-05-09T00:27:43.513Z,69.23
2018-05-09T00:30:11.788Z,68.39
2018-05-09T00:32:40.083Z,68.92
2018-05-09T00:35:08.359Z,69.90
2018-05-09T00:37:40.751Z,70.12
2018-05-09T00:40:09.307Z,70.05
2018-05-09T00:42:38.267Z,69.72
2018-05-09T00:45:06.627Z,69.72
2018-05-09T00:47:36.287Z,69.63
2018-05-09T00:50:04.918Z,69.52
2018-05-09T00:52:34.039Z,69.42
2018-05-09T00:55:03.084Z,69.11
2018-05-09T00:57:31.422Z,69.38
2018-05-09T01:00:00.915Z,69.66
2018-05-09T01:02:29.805Z,69.68
2018-05-09T01:04:58.923Z,69.76
2018-05-09T01:07:28.123Z,70.24
2018-05-09T01:09:57.035Z,70.12
2018-05-09T01:12:25.422Z,70.32
2018-05-09T01:14:53.722Z,70.26
2018-05-09T01:17:22.079Z,70.33
2018-05-09T01:19:52.281Z,70.56
2018-05-09T01:22:21.590Z,69.81
2018-05-09T01:24:49.880Z,69.98
2018-05-09T01:27:18.164Z,70.13
2018-05-09T01:29:47.131Z,70.08
2018-05-09T01:32:15.661Z,70.63
2018-05-09T01:34:44.449Z,69.93
2018-05-09T01:37:13.719Z,70.57
2018-05-09T01:39:42.526Z,71.21
2018-05-09T01:42:11.627Z,70.59
2018-05-09T01:44:40.029Z,70.16
2018-05-09T01:47:09.439Z,70.47
2018-05-09T01:49:38.475Z,70.54
2018-05-09T01:52:06.796Z,70.50
2018-05-09T01:54:35.096Z,71.12
2018-05-09T01:57:04.757Z,71.16
2018-05-09T01:59:33.050Z,70.84
2018-05-09T02:02:01.405Z,70.79
2018-05-09T02:04:29.703Z,70.64
2018-05-09T02:06:58.527Z,69.87
2018-05-09T02:09:28.450Z,70.67
2018-05-09T02:11:57.489Z,70.70
2018-05-09T02:14:25.947Z,71.12
2018-05-09T02:16:55.084Z,70.90
2018-05-09T02:19:23.826Z,70.52
2018-05-09T02:21:52.115Z,70.69
2018-05-09T02:24:21.063Z,70.96
2018-05-09T02:26:50.806Z,71.26
2018-05-09T02:29:20.640Z,71.53
2018-05-09T02:31:48.917Z,71.39
2018-05-09T02:34:17.212Z,71.57
2018-05-09T02:36:46.127Z,71.30
2018-05-09T02:39:14.686Z,70.96
2018-05-09T02:41:43.800Z,70.88
2018-05-09T02:44:12.270Z,70.79
2018-05-09T02:46:40.556Z,70.43
2018-05-09T02:49:08.850Z,70.28
2018-05-09T02:51:37.135Z,71.25
2018-05-09T02:54:06.187Z,71.56
2018-05-09T02:56:34.979Z,71.70
2018-05-09T02:59:03.270Z,71.17
2018-05-09T03:01:31.538Z,71.42
2018-05-09T03:03:59.843Z,71.39
2018-05-09T03:06:28.926Z,70.90
2018-05-09T03:08:58.014Z,71.04
2018-05-09T03:11:26.600Z,71.18
2018-05-09T03:13:55.667Z,71.22
2018-05-09T03:16:25.488Z,71.35
2018-05-09T03:18:54.600Z,71.30
2018-05-09T03:21:23.200Z,72.06
2018-05-09T03:23:51.862Z,72.17
2018-05-09T03:26:20.131Z,72.23
2018-05-09T03:28:48.726Z,72.60
2018-05-09T03:31:17.392Z,72.99
2018-05-09T03:33:46.435Z,73.19
2018-05-09T03:36:15.048Z,73.76
2018-05-09T03:38:44.091Z,73.80
2018-05-09T03:41:12.502Z,73.82
2018-05-09T03:43:42.192Z,73.99
2018-05-09T03:46:10.476Z,74.97
2018-05-09T03:48:38.760Z,75.68
2018-05-09T03:51:07.032Z,74.96
2018-05-09T03:53:35.371Z,75.05
2018-05-09T03:56:06.051Z,74.87
2018-05-09T03:58:34.314Z,75.62
2018-05-09T04:01:03.411Z,75.25
2018-05-09T04:03:50.384Z,75.01
2018-05-09T04:06:38.235Z,74.62
2018-05-09T04:09:25.048Z,73.84
2018-05-09T04:11:54.363Z,73.04
2018-05-09T04:14:23.252Z,73.10
2018-05-09T04:16:52.030Z,73.40
2018-05-09T04:19:20.331Z,74.36
2018-05-09T04:21:48.599Z,73.97
2018-05-09T04:24:18.347Z,73.34
2018-05-09T04:26:46.818Z,73.52
2018-05-09T04:29:15.113Z,72.90
2018-05-09T04:31:44.535Z,72.78
2018-05-09T04:34:14.626Z,73.17
2018-05-09T04:36:43.297Z,72.93
2018-05-09T04:39:12.035Z,73.58
2018-05-09T04:41:41.180Z,73.82
2018-05-09T04:44:10.164Z,74.58
2018-05-09T04:46:39.480Z,74.17
2018-05-09T04:49:09.099Z,74.11
2018-05-09T04:51:37.859Z,73.77
2018-05-09T04:54:07.121Z,73.83
2018-05-09T04:56:36.295Z,73.86
2018-05-09T04:59:05.207Z,73.44
2018-05-09T05:01:34.013Z,73.41
2018-05-09T05:04:03.791Z,73.17
2018-05-09T05:06:32.659Z,73.21
2018-05-09T05:09:01.864Z,73.60
2018-05-09T05:11:30.159Z,73.02
2018-05-09T05:14:00.366Z,72.86
2018-05-09T05:16:29.630Z,71.92
2018-05-09T05:18:57.908Z,71.74
2018-05-09T05:21:28.319Z,70.74
2018-05-09T05:23:56.598Z,70.58
2018-05-09T05:26:26.522Z,70.65
2018-05-09T05:28:55.646Z,70.73
2018-05-09T05:31:24.473Z,70.03
2018-05-09T05:33:53.524Z,69.34
2018-05-09T05:36:22.909Z,70.19
2018-05-09T05:38:52.905Z,70.38
2018-05-09T05:41:21.263Z,70.27
2018-05-09T05:43:49.551Z,70.85
2018-05-09T05:46:17.847Z,70.56
2018-05-09T05:48:47.952Z,70.34
2018-05-09T05:51:17.026Z,70.08
2018-05-09T05:53:46.470Z,69.93
2018-05-09T05:56:17.015Z,70.38
2018-05-09T05:58:46.165Z,69.76
2018-05-09T06:01:14.560Z,69.20
2018-05-09T06:03:44.052Z,68.91
2018-05-09T06:06:12.329Z,69.02
2018-05-09T06:08:41.954Z,69.59
2018-05-09T06:11:11.572Z,68.84
2018-05-09T06:13:39.916Z,68.48
2018-05-09T06:16:10.659Z,68.36
2018-05-09T06:18:40.303Z,67.63
2018-05-09T06:21:10.539Z,66.44
2018-05-09T06:23:39.867Z,66.06
2018-05-09T06:26:08.851Z,66.70
2018-05-09T06:28:37.559Z,66.27
2018-05-09T06:31:06.752Z,65.95
2018-05-09T06:33:35.022Z,64.00
2018-05-09T06:36:03.906Z,64.38
2018-05-09T06:38:32.507Z,64.15
2018-05-09T06:41:02.730Z,62.90
2018-05-09T06:43:33.029Z,61.69
2018-05-09T06:46:03.010Z,61.55
2018-05-09T06:48:31.322Z,62.45
2018-05-09T06:51:01.224Z,61.03
2018-05-09T06:53:30.631Z,59.98
2018-05-09T06:56:00.810Z,60.20
2018-05-09T06:58:29.171Z,58.80
2018-05-09T07:00:58.588Z,60.11
2018-05-09T07:03:27.675Z,59.96
2018-05-09T07:05:55.952Z,61.47
2018-05-09T07:08:24.585Z,58.64
2018-05-09T07:10:53.318Z,59.56
2018-05-09T07:13:21.811Z,58.05
2018-05-09T07:15:50.201Z,58.47
2018-05-09T07:18:18.478Z,58.03
2018-05-09T07:20:47.405Z,57.73
2018-05-09T07:23:16.685Z,57.22
2018-05-09T07:25:44.881Z,57.45
2018-05-09T07:28:14.802Z,58.00
2018-05-09T07:30:44.931Z,57.23
2018-05-09T07:33:13.926Z,57.97
2018-05-09T07:35:43.715Z,57.81
2018-05-09T07:38:12.012Z,58.28
2018-05-09T07:40:41.171Z,58.25
2018-05-09T07:43:10.638Z,57.00
2018-05-09T07:45:40.498Z,57.26
2018-05-09T07:48:08.779Z,56.47
2018-05-09T07:50:37.064Z,56.25
2018-05-09T07:53:05.356Z,57.69
2018-05-09T07:55:35.332Z,58.13
2018-05-09T07:58:03.639Z,55.97
2018-05-09T08:00:31.983Z,55.61
2018-05-09T08:03:00.275Z,54.23
2018-05-09T08:05:28.678Z,54.24
2018-05-09T08:07:57.865Z,56.47
2018-05-09T08:10:26.858Z,55.53
2018-05-09T08:12:55.577Z,56.32
2018-05-09T08:15:24.788Z,55.81
2018-05-09T08:17:53.942Z,55.08
2018-05-09T08:20:22.310Z,56.13
2018-05-09T08:22:50.847Z,54.58
2018-05-09T08:25:19.415Z,54.08
2018-05-09T08:27:49.091Z,52.79
2018-05-09T08:30:17.990Z,53.30
2018-05-09T08:32:46.989Z,54.42
2018-05-09T08:35:16.902Z,52.58
2018-05-09T08:37:45.180Z,51.54
2018-05-09T08:40:14.223Z,51.55
2018-05-09T08:42:43.283Z,51.18
2018-05-09T08:45:11.872Z,52.26
2018-05-09T08:47:40.566Z,52.19
2018-05-09T08:50:10.399Z,53.06
2018-05-09T08:52:40.158Z,52.17
2018-05-09T08:55:08.645Z,54.99
2018-05-09T08:57:36.919Z,52.71
2018-05-09T09:00:06.508Z,53.60
2018-05-09T09:02:34.945Z,47.88
2018-05-09T09:05:03.216Z,47.98
2018-05-09T09:07:31.484Z,50.56
2018-05-09T09:09:59.771Z,50.35
2018-05-09T09:12:29.584Z,47.75
2018-05-09T09:14:58.385Z,50.60
2018-05-09T09:17:28.026Z,48.30
2018-05-09T09:19:57.055Z,48.41
2018-05-09T09:22:25.775Z,49.97
2018-05-09T09:24:54.668Z,47.75
2018-05-09T09:27:23.114Z,49.02
2018-05-09T09:29:51.411Z,47.02
2018-05-09T09:32:20.032Z,49.57
2018-05-09T09:34:49.814Z,48.22
2018-05-09T09:37:18.123Z,51.92
2018-05-09T09:39:48.074Z,47.38
2018-05-09T09:42:16.863Z,45.68
2018-05-09T09:44:45.899Z,44.99
2018-05-09T09:47:14.592Z,48.22
2018-05-09T09:49:42.981Z,45.25
2018-05-09T09:52:11.867Z,44.95
2018-05-09T09:54:40.209Z,45.83
2018-05-09T09:57:08.998Z,45.15
2018-05-09T09:59:38.085Z,43.84
2018-05-09T10:02:06.518Z,46.95
2018-05-09T10:04:34.811Z,43.54
2018-05-09T10:07:05.619Z,45.61
2018-05-09T10:09:34.187Z,45.80
2018-05-09T10:12:02.511Z,46.33
2018-05-09T10:14:32.186Z,46.34
2018-05-09T10:17:01.779Z,44.51
2018-05-09T10:19:31.731Z,45.22
2018-05-09T10:22:01.351Z,42.72
2018-05-09T10:24:30.389Z,44.45
2018-05-09T10:26:59.114Z,45.02
2018-05-09T10:29:27.542Z,44.94
2018-05-09T10:31:56.420Z,45.55
2018-05-09T10:34:26.303Z,44.31
2018-05-09T10:36:54.991Z,43.96
2018-05-09T10:39:24.081Z,44.10
2018-05-09T10:41:53.851Z,44.91
2018-05-09T10:44:22.141Z,43.52
2018-05-09T10:46:51.614Z,43.11
2018-05-09T10:49:21.838Z,43.29
2018-05-09T10:51:52.518Z,44.14
2018-05-09T10:54:21.408Z,43.60
2018-05-09T10:56:49.844Z,44.52
2018-05-09T10:59:20.462Z,44.65
2018-05-09T11:01:49.521Z,46.65
2018-05-09T11:04:18.734Z,45.83
2018-05-09T11:06:47.531Z,42.98
2018-05-09T11:09:16.187Z,45.81
2018-05-09T11:11:45.369Z,43.21
2018-05-09T11:14:14.431Z,42.42
2018-05-09T11:16:44.219Z,41.78
2018-05-09T11:19:12.515Z,42.96
2018-05-09T11:21:42.426Z,41.94
2018-05-09T11:24:12.087Z,41.04
2018-05-09T11:26:41.281Z,42.28
2018-05-09T11:29:09.589Z,42.03
2018-05-09T11:31:37.963Z,39.71
2018-05-09T11:34:07.242Z,41.78
2018-05-09T11:36:35.506Z,43.10
2018-05-09T11:39:03.788Z,41.09
2018-05-09T11:41:33.106Z,43.44
2018-05-09T11:44:01.631Z,40.34
2018-05-09T11:46:30.576Z,40.29
2018-05-09T11:48:59.006Z,42.02
2018-05-09T11:51:27.695Z,41.16
2018-05-09T11:53:55.999Z,40.15
2018-05-09T11:56:25.287Z,38.62
2018-05-09T11:58:54.950Z,40.44
2018-05-09T12:01:23.330Z,39.37
2018-05-09T12:03:51.672Z,38.94
2018-05-09T12:06:20.893Z,40.75
2018-05-09T12:08:49.182Z,37.74
2018-05-09T12:11:17.891Z,40.59
2018-05-09T12:13:47.085Z,39.64
2018-05-09T12:16:15.355Z,38.83
2018-05-09T12:18:44.330Z,37.65
2018-05-09T12:21:12.896Z,37.37
2018-05-09T12:23:42.713Z,35.52
2018-05-09T12:26:11.011Z,33.72
2018-05-09T12:28:39.395Z,31.40
2018-05-09T12:31:08.336Z,30.45
2018-05-09T12:33:36.874Z,27.79
2018-05-09T12:36:05.156Z,23.96
2018-05-09T12:38:34.261Z,25.45
2018-05-09T12:41:02.885Z,24.43
2018-05-09T12:43:31.944Z,24.92
2018-05-09T12:46:00.261Z,27.18
2018-05-09T12:48:30.059Z,23.27
2018-05-09T12:50:58.990Z,24.64
2018-05-09T12:53:27.416Z,21.06
2018-05-09T12:55:55.977Z,23.25
2018-05-09T12:58:24.774Z,19.31
2018-05-09T13:00:53.143Z,23.40
2018-05-09T13:03:22.708Z,23.71
2018-05-09T13:05:52.325Z,25.51
2018-05-09T13:08:22.896Z,22.21
2018-05-09T13:10:51.175Z,19.47
2018-05-09T13:13:19.889Z,25.05
2018-05-09T13:15:49.532Z,21.49
2018-05-09T13:18:19.359Z,24.45
2018-05-09T13:20:47.631Z,25.06
2018-05-09T13:23:16.665Z,26.11
2018-05-09T13:25:45.022Z,22.76
2018-05-09T13:28:15.564Z,22.54
2018-05-09T13:30:43.846Z,19.53
2018-05-09T13:33:13.104Z,22.06
2018-05-09T13:35:42.299Z,23.08
2018-05-09T13:38:12.091Z,22.42
2018-05-09T13:40:41.580Z,25.44
2018-05-09T13:43:09.883Z,25.59
2018-05-09T13:45:38.946Z,26.81
2018-05-09T13:48:07.243Z,24.07
2018-05-09T13:50:35.872Z,20.69
2018-05-09T13:53:04.996Z,23.50
2018-05-09T13:55:33.293Z,22.80
2018-05-09T13:58:02.654Z,23.88
2018-05-09T14:00:31.678Z,24.76
2018-05-09T14:03:00.199Z,24.86
2018-05-09T14:05:28.914Z,27.21
2018-05-09T14:07:58.044Z,24.86
2018-05-09T14:10:26.357Z,25.13
2018-05-09T14:12:55.240Z,28.66
2018-05-09T14:15:25.071Z,29.80
2018-05-09T14:17:53.333Z,33.37
2018-05-09T14:20:21.643Z,32.90
2018-05-09T14:22:50.790Z,32.47
2018-05-09T14:25:19.203Z,32.53
2018-05-09T14:27:47.559Z,32.56
2018-05-09T14:30:16.226Z,31.03
2018-05-09T14:32:44.715Z,32.05
2018-05-09T14:35:13.516Z,29.71
2018-05-09T14:37:42.547Z,28.55
2018-05-09T14:40:11.599Z,25.60
2018-05-09T14:42:40.391Z,24.58
2018-05-09T14:45:08.675Z,25.97
2018-05-09T14:47:38.803Z,25.44
2018-05-09T14:50:07.175Z,30.86
2018-05-09T14:52:36.084Z,30.59
2018-05-09T14:55:04.430Z,29.38
2018-05-09T14:57:33.482Z,25.57
2018-05-09T15:00:02.619Z,26.03
2018-05-09T15:02:31.922Z,24.85
2018-05-09T15:05:01.337Z,25.21
2018-05-09T15:07:30.250Z,24.24
2018-05-09T15:09:59.418Z,23.35
2018-05-09T15:12:28.301Z,24.31
2018-05-09T15:14:58.120Z,24.40
2018-05-09T15:17:27.919Z,22.43
2018-05-09T15:19:56.215Z,25.95
2018-05-09T15:22:24.521Z,27.31
2018-05-09T15:24:53.198Z,27.88
2018-05-09T15:27:21.486Z,27.63
2018-05-09T15:29:50.099Z,26.91
2018-05-09T15:32:18.459Z,25.53
2018-05-09T15:34:47.639Z,25.84
2018-05-09T15:37:16.006Z,27.42
2018-05-09T15:39:45.156Z,27.40
2018-05-09T15:42:14.318Z,27.03
2018-05-09T15:44:43.750Z,27.80
2018-05-09T15:47:12.470Z,25.67
2018-05-09T15:49:41.491Z,27.78
2018-05-09T15:52:09.770Z,28.14
2018-05-09T15:54:38.042Z,29.07
2018-05-09T15:57:06.538Z,29.79
2018-05-09T15:59:35.919Z,27.92
2018-05-09T16:02:04.311Z,29.09
2018-05-09T16:04:32.692Z,29.99
2018-05-09T16:07:00.970Z,29.04
2018-05-09T16:09:30.153Z,27.58
2018-05-09T16:11:59.219Z,28.53
2018-05-09T16:14:28.251Z,29.69
2018-05-09T16:16:57.254Z,28.13
2018-05-09T16:19:25.955Z,28.21
2018-05-09T16:21:54.240Z,27.33
2018-05-09T16:24:22.526Z,26.47
2018-05-09T16:26:50.973Z,29.95
2018-05-09T16:29:19.251Z,29.24
2018-05-09T16:31:47.722Z,29.43
2018-05-09T16:34:16.078Z,28.08
2018-05-09T16:36:45.745Z,29.71
2018-05-09T16:39:14.158Z,28.82
2018-05-09T16:41:43.312Z,28.57
2018-05-09T16:44:12.019Z,29.16
2018-05-09T16:46:41.897Z,28.86
2018-05-09T16:49:11.692Z,28.84
2018-05-09T16:51:40.794Z,29.25
2018-05-09T16:54:10.280Z,29.26
2018-05-09T16:56:40.765Z,31.00
2018-05-09T16:59:09.459Z,29.56
2018-05-09T17:01:37.782Z,30.43
2018-05-09T17:04:07.641Z,30.24
2018-05-09T17:06:36.555Z,30.61
2018-05-09T17:09:04.838Z,32.03
2018-05-09T17:11:33.405Z,31.85
2018-05-09T17:14:01.976Z,32.80
2018-05-09T17:16:31.075Z,32.65
2018-05-09T17:18:59.355Z,32.18
2018-05-09T17:21:45.399Z,33.45
2018-05-09T17:24:15.058Z,34.48
2018-05-09T17:26:43.337Z,35.19
2018-05-09T17:29:11.632Z,35.07
2018-05-09T17:31:39.911Z,35.85
2018-05-09T17:34:08.230Z,37.14
2018-05-09T17:36:37.306Z,36.50
2018-05-09T17:39:05.592Z,37.26
2018-05-09T17:41:35.090Z,37.87
2018-05-09T17:44:05.031Z,38.47
2018-05-09T17:46:33.374Z,39.33
2018-05-09T17:49:02.568Z,37.90
2018-05-09T17:51:32.356Z,38.63
2018-05-09T17:54:00.768Z,40.01
2018-05-09T17:56:29.046Z,39.56
2018-05-09T17:58:58.133Z,39.96
2018-05-09T18:01:27.566Z,39.59
2018-05-09T18:03:57.000Z,40.87
2018-05-09T18:06:26.796Z,41.36
2018-05-09T18:08:55.115Z,41.81
2018-05-09T18:11:23.391Z,42.51
2018-05-09T18:13:52.326Z,41.69
2018-05-09T18:16:20.724Z,41.94
2018-05-09T18:18:49.524Z,42.71
2018-05-09T18:21:18.659Z,41.96
2018-05-09T18:23:46.988Z,42.69
2018-05-09T18:26:16.869Z,43.19
2018-05-09T18:28:45.161Z,44.75
2018-05-09T18:31:13.548Z,45.12
2018-05-09T18:33:41.914Z,46.43
2018-05-09T18:36:11.137Z,47.42
2018-05-09T18:38:40.306Z,46.57
2018-05-09T18:41:09.560Z,46.84
2018-05-09T18:43:37.866Z,47.34
2018-05-09T18:46:06.144Z,48.82
2018-05-09T18:48:35.421Z,48.23
2018-05-09T18:51:03.822Z,49.45
2018-05-09T18:53:32.991Z,49.51
2018-05-09T18:56:01.310Z,50.15
2018-05-09T18:58:29.644Z,50.26
2018-05-09T19:00:59.139Z,51.08
2018-05-09T19:03:29.290Z,50.53
2018-05-09T19:05:57.642Z,50.96
2018-05-09T19:08:26.825Z,52.21
2018-05-09T19:10:56.349Z,51.96
2018-05-09T19:13:25.436Z,52.03
2018-05-09T19:15:55.139Z,52.83
2018-05-09T19:18:23.474Z,53.22
2018-05-09T19:20:51.751Z,54.04
2018-05-09T19:23:20.029Z,53.80
2018-05-09T19:25:49.050Z,54.08
2018-05-09T19:28:18.864Z,54.97
2018-05-09T19:30:47.469Z,55.31
2018-05-09T19:33:17.231Z,55.63
2018-05-09T19:35:45.712Z,55.94
2018-05-09T19:38:14.110Z,55.89
2018-05-09T19:40:43.331Z,56.18
2018-05-09T19:43:12.550Z,56.62
2018-05-09T19:45:43.146Z,57.10
2018-05-09T19:48:11.465Z,56.98
2018-05-09T19:50:40.511Z,57.30
2018-05-09T19:53:10.131Z,57.75
2018-05-09T19:55:38.520Z,58.27
2018-05-09T19:58:07.139Z,58.73
2018-05-09T20:00:36.322Z,58.88
2018-05-09T20:03:04.698Z,59.43
2018-05-09T20:05:33.418Z,59.65
2018-05-09T20:08:03.576Z,60.62
2018-05-09T20:10:31.843Z,60.63
2018-05-09T20:13:00.461Z,60.96
2018-05-09T20:15:28.736Z,60.73
2018-05-09T20:17:57.723Z,61.70
2018-05-09T20:20:26.482Z,61.80
2018-05-09T20:22:55.105Z,61.21
2018-05-09T20:25:24.972Z,61.41
2018-05-09T20:27:53.682Z,61.18
2018-05-09T20:30:27.995Z,61.99
2018-05-09T20:32:57.159Z,61.49
2018-05-09T20:35:27.618Z,61.52
2018-05-09T20:37:57.408Z,61.46
2018-05-09T20:40:26.542Z,61.80
2018-05-09T20:42:55.625Z,62.30
2018-05-09T20:45:23.932Z,62.10
2018-05-09T20:47:53.139Z,62.61
2018-05-09T20:50:22.683Z,62.60
2018-05-09T20:52:51.705Z,63.04
2018-05-09T20:55:28.895Z,62.67
2018-05-09T20:57:59.005Z,62.26
2018-05-09T21:00:27.333Z,62.83
2018-05-09T21:02:56.736Z,62.90
2018-05-09T21:05:25.788Z,62.71
2018-05-09T21:07:58.032Z,63.21
2018-05-09T21:10:27.038Z,62.86
2018-05-09T21:12:55.615Z,62.59
2018-05-09T21:15:24.818Z,63.15
2018-05-09T21:17:54.579Z,63.32
2018-05-09T21:20:23.655Z,63.21
2018-05-09T21:22:52.698Z,63.10
2018-05-09T21:25:21.735Z,63.07
2018-05-09T21:27:50.594Z,63.32
2018-05-09T21:30:19.920Z,63.47
2018-05-09T21:32:48.186Z,63.06
2018-05-09T21:35:18.189Z,63.00
2018-05-09T21:37:46.632Z,63.26
2018-05-09T21:40:15.060Z,63.41
2018-05-09T21:42:44.316Z,63.77
2018-05-09T21:45:13.447Z,63.75
2018-05-09T21:47:44.004Z,63.56
2018-05-09T21:50:12.820Z,63.80
2018-05-09T21:52:42.384Z,63.45
2018-05-09T21:55:11.435Z,63.90
2018-05-09T21:57:39.797Z,63.73
2018-05-09T22:00:09.420Z,63.55
2018-05-09T22:02:37.787Z,63.43
2018-05-09T22:05:06.068Z,63.33
2018-05-09T22:07:34.352Z,63.59
2018-05-09T22:10:02.631Z,63.58
2018-05-09T22:12:30.910Z,63.54
2018-05-09T22:14:59.393Z,63.56
2018-05-09T22:17:27.712Z,63.45
2018-05-09T22:19:57.676Z,64.08
2018-05-09T22:22:26.724Z,63.34
2018-05-09T22:24:55.906Z,63.78
2018-05-09T22:27:25.143Z,63.38
2018-05-09T22:29:54.240Z,63.79
2018-05-09T22:32:25.620Z,63.61
2018-05-09T22:34:55.062Z,64.35
2018-05-09T22:37:23.582Z,64.48
2018-05-09T22:39:51.872Z,64.26
2018-05-09T22:42:20.527Z,64.77
2018-05-09T22:44:50.994Z,64.78
2018-05-09T22:47:19.950Z,64.83
2018-05-09T22:49:49.050Z,65.52
2018-05-09T22:52:18.038Z,65.72
2018-05-09T22:54:47.086Z,65.56
2018-05-09T22:57:16.375Z,66.24
2018-05-09T22:59:45.347Z,66.46
2018-05-09T23:02:13.971Z,66.72
2018-05-09T23:04:42.359Z,66.71
2018-05-09T23:07:11.283Z,66.50
2018-05-09T23:09:40.451Z,66.71
2018-05-09T23:12:09.252Z,66.41
2018-05-09T23:14:37.694Z,67.58
2018-05-09T23:17:06.153Z,67.09
2018-05-09T23:19:34.374Z,66.84
2018-05-09T23:22:03.511Z,66.97
2018-05-09T23:24:33.261Z,67.57
2018-05-09T23:27:03.616Z,67.20
2018-05-09T23:29:31.926Z,67.04
2018-05-09T23:32:00.841Z,67.04
2018-05-09T23:34:30.815Z,67.87
2018-05-09T23:36:59.906Z,67.55
2018-05-09T23:39:28.287Z,67.85
2018-05-09T23:41:56.606Z,68.06
2018-05-09T23:44:27.531Z,67.87
2018-05-09T23:46:58.682Z,68.15
2018-05-09T23:49:27.732Z,68.47
2018-05-09T23:51:56.029Z,68.32
2018-05-09T23:54:25.930Z,68.69
2018-05-09T23:56:55.086Z,68.41
2018-05-09T23:59:23.563Z,68.47
